createdAt,value
2018-12-03T00:01:39.611Z,121.57
2018-12-03T00:04:16.656Z,118.33
2018-12-03T00:06:46.516Z,118.87
2018-12-03T00:09:17.275Z,116.13
2018-12-03T00:11:47.086Z,118.43
2018-12-03T00:14:17.213Z,114.43
2018-12-03T00:16:47.116Z,123.53
2018-12-03T00:19:16.877Z,115.10
2018-12-03T00:21:49.905Z,117.37
2018-12-03T00:24:19.662Z,115.03
2018-12-03T00:26:49.384Z,106.37
2018-12-03T00:29:19.487Z,116.60
2018-12-03T00:31:49.826Z,120.57
2018-12-03T00:34:19.547Z,123.07
2018-12-03T00:36:49.241Z,113.30
2018-12-03T00:39:19.740Z,117.97
2018-12-03T00:41:49.764Z,120.83
2018-12-03T00:44:19.455Z,111.43
2018-12-03T00:46:49.237Z,114.17
2018-12-03T00:49:19.491Z,118.33
2018-12-03T00:51:49.249Z,110.90
2018-12-03T00:54:19.332Z,125.33
2018-12-03T00:56:49.057Z,116.40
2018-12-03T00:59:19.200Z,118.50
2018-12-03T01:01:49.280Z,116.97
2018-12-03T01:04:18.918Z,120.40
2018-12-03T01:06:49.108Z,126.53
2018-12-03T01:09:19.651Z,126.67
2018-12-03T01:11:49.343Z,128.63
2018-12-03T01:14:19.943Z,127.27
2018-12-03T01:16:50.691Z,131.97
2018-12-03T01:19:20.498Z,135.00
2018-12-03T01:21:50.159Z,127.53
2018-12-03T01:24:19.899Z,119.40
2018-12-03T01:26:49.677Z,126.63
2018-12-03T01:29:20.102Z,124.73
2018-12-03T01:31:49.805Z,122.23
2018-12-03T01:34:20.236Z,125.83
2018-12-03T01:36:50.827Z,122.83
2018-12-03T01:39:21.784Z,123.40
2018-12-03T01:41:51.599Z,118.07
2018-12-03T01:44:21.270Z,123.20
2018-12-03T01:46:50.986Z,117.10
2018-12-03T01:49:21.494Z,115.40
2018-12-03T01:51:52.149Z,122.67
2018-12-03T01:54:22.171Z,118.67
2018-12-03T01:56:52.716Z,118.93
2018-12-03T01:59:23.323Z,111.63
2018-12-03T02:01:53.163Z,116.20
2018-12-03T02:04:22.878Z,122.40
2018-12-03T02:06:54.299Z,119.30
2018-12-03T02:09:24.047Z,117.23
2018-12-03T02:11:53.780Z,114.70
2018-12-03T02:14:24.884Z,109.97
2018-12-03T02:16:54.847Z,118.87
2018-12-03T02:19:24.569Z,117.27
2018-12-03T02:21:54.383Z,116.27
2018-12-03T02:24:24.105Z,116.17
2018-12-03T02:26:53.804Z,120.30
2018-12-03T02:29:23.524Z,117.67
2018-12-03T02:31:53.265Z,115.50
2018-12-03T02:34:23.032Z,110.40
2018-12-03T02:36:52.760Z,115.90
2018-12-03T02:39:23.141Z,116.67
2018-12-03T02:41:53.302Z,108.73
2018-12-03T02:44:23.064Z,111.23
2018-12-03T02:46:57.189Z,108.80
2018-12-03T02:49:26.868Z,110.87
2018-12-03T02:51:56.573Z,111.37
2018-12-03T02:54:26.391Z,111.73
2018-12-03T02:56:56.113Z,103.40
2018-12-03T02:59:25.764Z,109.73
2018-12-03T03:01:56.396Z,118.07
2018-12-03T03:04:27.185Z,111.20
2018-12-03T03:06:56.891Z,108.03
2018-12-03T03:09:26.628Z,109.90
2018-12-03T03:11:56.486Z,112.20
2018-12-03T03:14:26.118Z,115.83
2018-12-03T03:16:55.832Z,112.83
2018-12-03T03:19:26.491Z,109.37
2018-12-03T03:21:56.157Z,117.20
2018-12-03T03:24:25.724Z,113.07
2018-12-03T03:26:56.022Z,114.97
2018-12-03T03:29:25.765Z,108.07
2018-12-03T03:31:55.480Z,113.17
2018-12-03T03:34:25.098Z,109.50
2018-12-03T03:36:54.835Z,106.27
2018-12-03T03:39:24.541Z,111.27
2018-12-03T03:41:54.255Z,110.13
2018-12-03T03:44:24.006Z,108.00
2018-12-03T03:46:54.463Z,104.43
2018-12-03T03:49:24.168Z,108.37
2018-12-03T03:51:53.825Z,107.33
2018-12-03T03:54:25.462Z,100.93
2018-12-03T03:56:54.667Z,96.53
2018-12-03T03:59:24.773Z,102.23
2018-12-03T04:01:58.253Z,98.93
2018-12-03T04:04:28.473Z,105.23
2018-12-03T04:06:58.357Z,103.93
2018-12-03T04:09:28.022Z,103.57
2018-12-03T04:11:57.642Z,103.13
2018-12-03T04:14:27.353Z,104.23
2018-12-03T04:16:56.984Z,103.00
2018-12-03T04:19:26.769Z,100.53
2018-12-03T04:21:56.393Z,105.20
2018-12-03T04:24:26.069Z,101.97
2018-12-03T04:26:56.104Z,99.43
2018-12-03T04:29:26.088Z,95.23
2018-12-03T04:31:56.115Z,92.80
2018-12-03T04:34:26.075Z,98.53
2018-12-03T04:36:55.702Z,95.87
2018-12-03T04:39:25.422Z,96.77
2018-12-03T04:41:55.139Z,95.97
2018-12-03T04:44:24.979Z,97.63
2018-12-03T04:46:54.779Z,97.93
2018-12-03T04:49:25.191Z,98.70
2018-12-03T04:51:55.263Z,96.77
2018-12-03T04:54:25.085Z,94.53
2018-12-03T04:56:54.685Z,96.43
2018-12-03T04:59:24.358Z,92.33
2018-12-03T05:01:54.625Z,95.07
2018-12-03T05:04:24.366Z,99.03
2018-12-03T05:06:54.340Z,96.27
2018-12-03T05:09:24.057Z,103.43
2018-12-03T05:11:53.893Z,97.80
2018-12-03T05:14:24.530Z,102.07
2018-12-03T05:16:54.205Z,100.23
2018-12-03T05:19:24.477Z,100.53
2018-12-03T05:21:54.248Z,102.57
2018-12-03T05:24:23.992Z,95.27
2018-12-03T05:26:53.951Z,107.27
2018-12-03T05:29:23.600Z,102.93
2018-12-03T05:31:53.252Z,98.93
2018-12-03T05:34:23.008Z,98.73
2018-12-03T05:36:52.617Z,131.50
2018-12-03T05:39:22.701Z,108.53
2018-12-03T05:41:52.696Z,104.57
2018-12-03T05:44:22.948Z,98.27
2018-12-03T05:46:52.665Z,100.37
2018-12-03T05:49:22.658Z,95.43
2018-12-03T05:51:53.228Z,101.83
2018-12-03T05:54:23.218Z,99.57
2018-12-03T05:56:52.878Z,99.30
2018-12-03T05:59:22.593Z,98.70
2018-12-03T06:01:53.338Z,101.07
2018-12-03T06:04:23.492Z,96.50
2018-12-03T06:06:53.480Z,97.77
2018-12-03T06:09:23.626Z,97.80
2018-12-03T06:11:53.533Z,103.20
2018-12-03T06:14:23.476Z,97.60
2018-12-03T06:16:53.759Z,101.27
2018-12-03T06:19:23.600Z,99.17
2018-12-03T06:21:55.435Z,94.80
2018-12-03T06:24:25.189Z,100.20
2018-12-03T06:26:55.932Z,98.23
2018-12-03T06:29:26.468Z,94.70
2018-12-03T06:31:56.933Z,99.07
2018-12-03T06:34:26.818Z,98.03
2018-12-03T06:36:57.173Z,99.93
2018-12-03T06:39:27.300Z,99.77
2018-12-03T06:41:57.716Z,97.10
2018-12-03T06:44:27.656Z,99.17
2018-12-03T06:46:57.475Z,97.27
2018-12-03T06:49:27.983Z,97.10
2018-12-03T06:51:57.801Z,96.10
2018-12-03T06:54:27.763Z,97.30
2018-12-03T06:56:57.654Z,103.37
2018-12-03T06:59:27.571Z,100.20
2018-12-03T07:01:57.713Z,90.77
2018-12-03T07:04:27.648Z,94.73
2018-12-03T07:06:57.658Z,83.03
2018-12-03T07:09:27.492Z,90.57
2018-12-03T07:11:57.797Z,88.87
2018-12-03T07:14:28.167Z,85.40
2018-12-03T07:16:59.305Z,84.33
2018-12-03T07:19:29.629Z,78.67
2018-12-03T07:21:59.417Z,88.93
2018-12-03T07:24:29.605Z,83.67
2018-12-03T07:27:00.631Z,77.53
2018-12-03T07:29:30.450Z,80.73
2018-12-03T07:32:00.389Z,86.37
2018-12-03T07:34:30.262Z,84.40
2018-12-03T07:37:00.213Z,84.03
2018-12-03T07:39:30.064Z,87.27
2018-12-03T07:42:00.568Z,85.30
2018-12-03T07:44:31.175Z,87.83
2018-12-03T07:47:01.198Z,290.90
2018-12-03T07:49:31.103Z,117.87
2018-12-03T07:52:01.168Z,91.77
2018-12-03T07:54:31.792Z,93.87
2018-12-03T07:57:02.772Z,85.33
2018-12-03T07:59:32.601Z,84.47
2018-12-03T08:02:02.438Z,85.10
2018-12-03T08:04:32.640Z,87.20
2018-12-03T08:07:03.352Z,84.43
2018-12-03T08:09:33.266Z,83.20
2018-12-03T08:12:04.055Z,88.13
2018-12-03T08:14:34.670Z,82.00
2018-12-03T08:17:04.639Z,82.33
2018-12-03T08:19:35.246Z,89.00
2018-12-03T08:22:05.644Z,85.37
2018-12-03T08:24:35.624Z,83.73
2018-12-03T08:27:05.916Z,89.30
2018-12-03T08:29:36.913Z,84.63
2018-12-03T08:32:08.060Z,78.23
2018-12-03T08:34:38.632Z,78.17
2018-12-03T08:37:08.872Z,78.03
2018-12-03T08:39:39.389Z,78.23
2018-12-03T08:42:09.725Z,85.60
2018-12-03T08:44:40.049Z,74.33
2018-12-03T08:47:13.248Z,72.70
2018-12-03T08:49:43.101Z,81.40
2018-12-03T08:52:14.268Z,76.53
2018-12-03T08:54:44.405Z,74.70
2018-12-03T08:57:15.096Z,70.33
2018-12-03T08:59:45.217Z,70.97
2018-12-03T09:02:15.124Z,79.83
2018-12-03T09:04:45.093Z,93.13
2018-12-03T09:07:14.922Z,69.20
2018-12-03T09:09:45.101Z,75.90
2018-12-03T09:12:15.853Z,70.00
2018-12-03T09:14:46.521Z,71.40
2018-12-03T09:17:16.337Z,66.93
2018-12-03T09:19:50.851Z,69.00
2018-12-03T09:22:21.572Z,70.57
2018-12-03T09:24:51.859Z,70.57
2018-12-03T09:27:21.912Z,68.37
2018-12-03T09:29:52.357Z,66.47
2018-12-03T09:32:23.142Z,69.83
2018-12-03T09:34:53.704Z,68.27
2018-12-03T09:37:23.981Z,75.27
2018-12-03T09:39:54.006Z,71.73
2018-12-03T09:42:25.527Z,67.80
2018-12-03T09:44:55.809Z,70.63
2018-12-03T09:47:25.909Z,71.27
2018-12-03T09:49:55.822Z,75.70
2018-12-03T09:52:27.067Z,74.57
2018-12-03T09:54:56.990Z,74.80
2018-12-03T09:57:27.067Z,72.70
2018-12-03T09:59:56.876Z,73.60
2018-12-03T10:02:28.494Z,69.73
2018-12-03T10:04:59.435Z,73.67
2018-12-03T10:07:29.875Z,73.07
2018-12-03T10:10:00.216Z,71.07
2018-12-03T10:12:30.464Z,71.60
2018-12-03T10:15:01.291Z,66.87
2018-12-03T10:17:31.276Z,67.63
2018-12-03T10:20:01.522Z,66.67
2018-12-03T10:22:32.220Z,67.93
2018-12-03T10:25:02.968Z,66.30
2018-12-03T10:27:32.818Z,66.53
2018-12-03T10:30:12.170Z,66.90
2018-12-03T10:32:41.986Z,66.10
2018-12-03T10:35:12.169Z,61.70
2018-12-03T10:37:42.308Z,59.10
2018-12-03T10:40:17.976Z,64.67
2018-12-03T10:42:49.055Z,60.07
2018-12-03T10:45:26.217Z,55.67
2018-12-03T10:47:57.017Z,75.97
2018-12-03T10:50:27.388Z,58.37
2018-12-03T10:52:57.995Z,58.20
2018-12-03T10:55:28.347Z,58.40
2018-12-03T10:57:58.900Z,56.33
2018-12-03T11:00:34.208Z,45.77
2018-12-03T11:03:09.600Z,43.80
2018-12-03T11:05:45.265Z,46.60
2018-12-03T11:08:19.503Z,46.90
2018-12-03T11:10:49.385Z,46.97
2018-12-03T11:13:20.183Z,46.07
2018-12-03T11:15:50.442Z,46.90
2018-12-03T11:18:21.300Z,41.30
2018-12-03T11:20:52.041Z,44.53
2018-12-03T11:23:23.672Z,38.67
2018-12-03T11:25:54.489Z,36.67
2018-12-03T11:28:24.508Z,32.83
2018-12-03T11:30:55.578Z,30.33
2018-12-03T11:33:27.779Z,30.07
2018-12-03T11:35:59.877Z,33.07
2018-12-03T11:38:42.322Z,35.30
2018-12-03T11:41:12.898Z,28.27
2018-12-03T11:43:43.851Z,30.33
2018-12-03T11:46:15.795Z,30.00
2018-12-03T11:48:45.841Z,38.50
2018-12-03T11:51:15.618Z,38.50
2018-12-03T11:53:46.063Z,40.43
2018-12-03T11:56:16.435Z,38.67
2018-12-03T11:58:47.199Z,41.70
2018-12-03T12:01:17.068Z,41.73
2018-12-03T12:03:46.861Z,38.43
2018-12-03T12:06:16.752Z,46.53
2018-12-03T12:08:46.639Z,41.70
2018-12-03T12:11:16.890Z,40.23
2018-12-03T12:13:49.838Z,38.80
2018-12-03T12:16:20.197Z,35.37
2018-12-03T12:18:50.350Z,53.00
2018-12-03T12:21:20.793Z,39.73
2018-12-03T12:23:51.182Z,36.33
2018-12-03T12:26:23.123Z,36.37
2018-12-03T12:28:53.055Z,36.03
2018-12-03T12:31:23.250Z,39.20
2018-12-03T12:33:53.404Z,43.73
2018-12-03T12:36:23.229Z,40.20
2018-12-03T12:38:54.397Z,38.40
2018-12-03T12:41:24.146Z,41.23
2018-12-03T12:43:54.256Z,40.90
2018-12-03T12:46:28.072Z,37.03
2018-12-03T12:48:57.768Z,38.47
2018-12-03T12:51:27.580Z,39.50
2018-12-03T12:53:57.388Z,38.07
2018-12-03T12:56:27.324Z,49.10
2018-12-03T12:58:57.134Z,44.67
2018-12-03T13:01:27.785Z,37.23
2018-12-03T13:03:58.101Z,46.63
2018-12-03T13:06:28.896Z,43.47
2018-12-03T13:08:59.153Z,45.00
2018-12-03T13:11:29.119Z,38.23
2018-12-03T13:13:59.379Z,38.33
2018-12-03T13:16:30.221Z,41.60
2018-12-03T13:19:01.265Z,35.43
2018-12-03T13:21:32.223Z,37.03
2018-12-03T13:24:02.405Z,32.83
2018-12-03T13:26:33.313Z,29.83
2018-12-03T13:29:03.885Z,27.93
2018-12-03T13:31:34.664Z,25.97
2018-12-03T13:34:05.265Z,22.00
2018-12-03T13:36:36.096Z,20.27
2018-12-03T13:39:08.992Z,28.10
2018-12-03T13:41:39.004Z,23.53
2018-12-03T13:44:09.549Z,23.37
2018-12-03T13:46:39.957Z,24.80
2018-12-03T13:49:11.183Z,24.30
2018-12-03T13:51:41.314Z,18.73
2018-12-03T13:54:11.913Z,17.97
2018-12-03T13:56:42.015Z,17.27
2018-12-03T13:59:11.791Z,21.27
2018-12-03T14:01:42.338Z,18.97
2018-12-03T14:04:14.868Z,22.43
2018-12-03T14:07:13.030Z,17.33
2018-12-03T14:10:21.681Z,20.17
2018-12-03T14:13:11.183Z,17.30
2018-12-03T14:16:58.479Z,18.93
2018-12-03T14:19:30.695Z,19.17
2018-12-03T14:22:08.693Z,18.63
2018-12-03T14:24:39.564Z,15.83
2018-12-03T14:27:10.239Z,20.43
2018-12-03T14:29:40.246Z,19.47
2018-12-03T14:32:10.756Z,17.90
2018-12-03T14:34:40.544Z,20.80
2018-12-03T14:37:10.359Z,19.00
2018-12-03T14:39:41.076Z,22.27
2018-12-03T14:42:12.009Z,21.67
2018-12-03T14:44:41.765Z,30.93
2018-12-03T14:47:12.915Z,72.10
2018-12-03T14:49:42.604Z,57.83
2018-12-03T14:52:13.322Z,39.40
2018-12-03T14:54:43.788Z,34.30
2018-12-03T14:57:14.315Z,35.07
2018-12-03T14:59:44.448Z,35.73
2018-12-03T15:02:14.404Z,28.63
2018-12-03T15:04:44.602Z,32.10
2018-12-03T15:07:14.732Z,35.03
2018-12-03T15:09:44.972Z,37.37
2018-12-03T15:12:15.226Z,35.07
2018-12-03T15:14:45.348Z,32.17
2018-12-03T15:17:16.376Z,30.23
2018-12-03T15:19:47.546Z,32.70
2018-12-03T15:22:19.160Z,31.37
2018-12-03T15:24:49.782Z,26.43
2018-12-03T15:27:20.952Z,28.03
2018-12-03T15:29:52.232Z,25.20
2018-12-03T15:32:22.432Z,28.53
2018-12-03T15:34:52.196Z,28.47
2018-12-03T15:37:21.959Z,31.00
2018-12-03T15:39:51.947Z,29.00
2018-12-03T15:42:22.103Z,27.57
2018-12-03T15:44:52.120Z,34.40
2018-12-03T15:47:23.219Z,28.77
2018-12-03T15:49:53.590Z,33.43
2018-12-03T15:52:24.459Z,40.10
2018-12-03T15:54:55.144Z,33.80
2018-12-03T15:57:25.395Z,68.63
2018-12-03T15:59:55.697Z,54.33
2018-12-03T16:02:25.930Z,37.83
2018-12-03T16:04:56.985Z,35.63
2018-12-03T16:07:26.761Z,35.20
2018-12-03T16:09:56.836Z,35.33
2018-12-03T16:12:27.521Z,32.33
2018-12-03T16:14:59.013Z,29.03
2018-12-03T16:17:28.854Z,30.67
2018-12-03T16:19:59.119Z,33.10
2018-12-03T16:22:29.085Z,30.17
2018-12-03T16:24:59.369Z,31.87
2018-12-03T16:27:29.173Z,34.20
2018-12-03T16:29:59.008Z,27.93
2018-12-03T16:32:28.980Z,31.33
2018-12-03T16:34:59.197Z,36.30
2018-12-03T16:37:29.636Z,34.80
2018-12-03T16:39:59.487Z,38.87
2018-12-03T16:42:30.037Z,35.90
2018-12-03T16:45:00.155Z,39.23
2018-12-03T16:47:30.500Z,33.30
2018-12-03T16:50:01.292Z,31.93
2018-12-03T16:52:31.747Z,34.43
2018-12-03T16:55:02.599Z,37.20
2018-12-03T16:57:32.495Z,33.53
2018-12-03T17:00:02.645Z,30.57
2018-12-03T17:02:33.605Z,45.87
2018-12-03T17:05:03.536Z,35.87
2018-12-03T17:07:33.881Z,32.00
2018-12-03T17:10:05.686Z,34.70
2018-12-03T17:12:35.529Z,33.70
2018-12-03T17:15:06.398Z,43.47
2018-12-03T17:17:36.933Z,39.57
2018-12-03T17:20:14.149Z,31.53
2018-12-03T17:22:56.321Z,41.47
2018-12-03T17:25:27.903Z,33.27
2018-12-03T17:27:57.976Z,35.00
2018-12-03T17:30:28.453Z,30.77
2018-12-03T17:32:58.574Z,31.40
2018-12-03T17:35:28.527Z,29.87
2018-12-03T17:37:59.020Z,36.17
2018-12-03T17:40:29.216Z,35.37
2018-12-03T17:42:59.344Z,30.80
2018-12-03T17:45:29.668Z,30.77
2018-12-03T17:47:59.624Z,34.40
2018-12-03T17:50:29.897Z,37.93
2018-12-03T17:53:00.086Z,43.83
2018-12-03T17:55:30.350Z,54.13
2018-12-03T17:58:00.310Z,55.00
2018-12-03T18:00:30.528Z,64.27
2018-12-03T18:03:01.190Z,52.07
2018-12-03T18:05:31.377Z,46.73
2018-12-03T18:08:01.614Z,50.90
2018-12-03T18:10:32.619Z,43.70
2018-12-03T18:13:02.701Z,44.43
2018-12-03T18:15:32.955Z,43.50
2018-12-03T18:18:03.165Z,41.30
2018-12-03T18:20:33.404Z,42.03
2018-12-03T18:23:04.003Z,44.23
2018-12-03T18:25:34.435Z,44.07
2018-12-03T18:28:05.314Z,45.87
2018-12-03T18:30:35.627Z,43.70
2018-12-03T18:33:06.853Z,43.70
2018-12-03T18:35:37.200Z,57.00
2018-12-03T18:38:07.391Z,56.27
2018-12-03T18:40:37.629Z,43.43
2018-12-03T18:43:07.972Z,42.73
2018-12-03T18:45:38.297Z,44.17
2018-12-03T18:48:10.436Z,44.97
2018-12-03T18:50:41.797Z,43.60
2018-12-03T18:53:16.673Z,46.07
2018-12-03T18:55:46.989Z,40.27
2018-12-03T18:58:20.504Z,37.70
2018-12-03T19:00:50.814Z,47.43
2018-12-03T19:03:21.191Z,68.10
2018-12-03T19:05:51.342Z,57.07
2018-12-03T19:08:22.050Z,72.63
2018-12-03T19:10:52.467Z,60.07
2018-12-03T19:13:23.718Z,55.87
2018-12-03T19:15:54.119Z,52.33
2018-12-03T19:18:24.666Z,54.17
2018-12-03T19:20:56.001Z,52.50
2018-12-03T19:23:26.360Z,65.67
2018-12-03T19:25:56.635Z,70.00
2018-12-03T19:28:26.978Z,78.27
2018-12-03T19:30:57.397Z,69.23
2018-12-03T19:33:27.673Z,73.40
2018-12-03T19:35:58.071Z,73.70
2018-12-03T19:38:28.481Z,70.10
2018-12-03T19:40:58.991Z,65.87
2018-12-03T19:43:30.194Z,65.17
2018-12-03T19:46:00.664Z,64.77
2018-12-03T19:48:31.206Z,62.87
2018-12-03T19:51:01.626Z,68.17
2018-12-03T19:53:32.324Z,69.97
2018-12-03T19:56:03.439Z,73.27
2018-12-03T19:58:37.529Z,61.50
2018-12-03T20:01:08.819Z,75.23
2018-12-03T20:03:39.305Z,77.47
2018-12-03T20:06:10.810Z,70.53
2018-12-03T20:09:14.773Z,63.33
2018-12-03T20:11:45.244Z,44.93
2018-12-03T20:14:13.842Z,48.23
2018-12-03T20:16:42.929Z,47.00
2018-12-03T20:19:12.359Z,45.63
2018-12-03T20:21:40.969Z,57.70
2018-12-03T20:24:09.529Z,61.20
2018-12-03T20:26:38.121Z,59.47
2018-12-03T20:29:06.685Z,50.17
2018-12-03T20:31:36.997Z,45.87
2018-12-03T20:34:07.569Z,46.33
2018-12-03T20:36:37.016Z,41.73
2018-12-03T20:39:10.947Z,44.00
2018-12-03T20:41:39.835Z,43.57
2018-12-03T20:44:09.748Z,40.57
2018-12-03T20:46:39.260Z,41.50
2018-12-03T20:49:11.373Z,49.40
2018-12-03T20:51:40.026Z,41.93
2018-12-03T20:54:08.641Z,37.07
2018-12-03T20:56:37.362Z,37.30
2018-12-03T20:59:05.971Z,40.10
2018-12-03T21:01:34.637Z,41.87
2018-12-03T21:04:04.089Z,43.57
2018-12-03T21:06:32.717Z,39.93
2018-12-03T21:09:01.349Z,49.23
2018-12-03T21:11:29.908Z,43.20
2018-12-03T21:13:58.500Z,44.40
2018-12-03T21:16:29.189Z,48.03
2018-12-03T21:18:57.808Z,50.57
2018-12-03T21:21:26.592Z,50.43
2018-12-03T21:23:55.250Z,48.93
2018-12-03T21:26:23.870Z,46.57
2018-12-03T21:28:52.442Z,48.00
2018-12-03T21:31:20.976Z,48.00
2018-12-03T21:33:49.775Z,44.80
2018-12-03T21:36:18.618Z,40.77
2018-12-03T21:38:47.276Z,43.97
2018-12-03T21:41:16.089Z,45.87
2018-12-03T21:43:44.646Z,44.93
2018-12-03T21:46:13.257Z,46.10
2018-12-03T21:48:41.797Z,41.40
2018-12-03T21:51:10.278Z,43.20
2018-12-03T21:53:38.872Z,42.30
2018-12-03T21:56:07.329Z,43.90
2018-12-03T21:58:36.576Z,44.13
2018-12-03T22:01:05.312Z,46.13
2018-12-03T22:03:33.821Z,49.87
2018-12-03T22:06:02.272Z,53.73
2018-12-03T22:08:30.804Z,48.20
2018-12-03T22:10:59.408Z,54.83
2018-12-03T22:13:27.855Z,47.70
2018-12-03T22:15:56.352Z,50.10
2018-12-03T22:18:24.783Z,50.20
2018-12-03T22:20:53.232Z,48.67
2018-12-03T22:23:21.787Z,54.53
2018-12-03T22:25:50.539Z,54.60
2018-12-03T22:28:19.207Z,54.67
2018-12-03T22:30:47.672Z,56.97
2018-12-03T22:33:16.136Z,49.77
2018-12-03T22:35:44.878Z,53.10
2018-12-03T22:38:13.389Z,51.30
2018-12-03T22:40:41.854Z,52.33
2018-12-03T22:43:10.291Z,51.30
2018-12-03T22:45:38.837Z,51.23
2018-12-03T22:48:07.509Z,53.13
2018-12-03T22:50:36.402Z,58.27
2018-12-03T22:53:04.923Z,55.20
2018-12-03T22:55:33.372Z,55.33
2018-12-03T22:58:01.803Z,52.20
2018-12-03T23:00:38.126Z,54.17
2018-12-03T23:03:06.964Z,53.90
2018-12-03T23:05:37.169Z,53.63
2018-12-03T23:08:06.622Z,53.67
2018-12-03T23:10:35.077Z,54.03
2018-12-03T23:13:03.489Z,53.50
2018-12-03T23:15:31.996Z,52.07
2018-12-03T23:18:00.436Z,60.97
2018-12-03T23:20:28.886Z,66.83
2018-12-03T23:22:57.386Z,56.30
2018-12-03T23:25:26.097Z,64.70
2018-12-03T23:27:54.805Z,65.97
2018-12-03T23:30:23.304Z,59.33
2018-12-03T23:32:51.755Z,53.63
2018-12-03T23:35:20.228Z,55.47
2018-12-03T23:37:48.718Z,54.60
2018-12-03T23:40:17.167Z,54.80
2018-12-03T23:42:45.616Z,52.33
2018-12-03T23:45:14.152Z,52.20
2018-12-03T23:47:42.603Z,53.00
2018-12-03T23:50:11.164Z,59.77
2018-12-03T23:52:39.654Z,54.30
2018-12-03T23:55:08.129Z,50.23
2018-12-03T23:57:36.969Z,49.77
